sensor_id;sensor_type;location;lat;lon;timestamp;temperature;humidity
62998;DHT22;55949;52.590;7.330;2023-04-15T00:00:52;8.90;99.90
62998;DHT22;55949;52.590;7.330;2023-04-15T00:01:53;8.80;99.90
62998;DHT22;55949;52.590;7.330;2023-04-15T00:02:54;8.80;99.90
62998;DHT22;55949;52.590;7.330;2023-04-15T00:03:55;8.80;99.90
62998;DHT22;55949;52.590;7.330;2023-04-15T00:04:56;8.80;99.90
62998;DHT22;55949;52.590;7.330;2023-04-15T00:05:57;8.70;99.90
62998;DHT22;55949;52.590;7.330;2023-04-15T00:06:58;8.60;99.90
62998;DHT22;55949;52.590;7.330;2023-04-15T00:07:59;8.60;99.90
62998;DHT22;55949;52.590;7.330;2023-04-15T00:09:00;8.50;99.90
62998;DHT22;55949;52.590;7.330;2023-04-15T00:10:01;8.50;99.90
62998;DHT22;55949;52.590;7.330;2023-04-15T00:11:04;8.50;99.90
62998;DHT22;55949;52.590;7.330;2023-04-15T00:12:05;8.40;99.90
62998;DHT22;55949;52.590;7.330;2023-04-15T00:13:06;8.40;99.90
62998;DHT22;55949;52.590;7.330;2023-04-15T00:14:06;8.30;99.90
62998;DHT22;55949;52.590;7.330;2023-04-15T00:15:08;8.40;99.90
62998;DHT22;55949;52.590;7.330;2023-04-15T00:16:09;8.40;99.90
62998;DHT22;55949;52.590;7.330;2023-04-15T00:17:10;8.40;99.90
62998;DHT22;55949;52.590;7.330;2023-04-15T00:18:11;8.40;99.90
62998;DHT22;55949;52.590;7.330;2023-04-15T00:19:12;8.40;99.90
62998;DHT22;55949;52.590;7.330;2023-04-15T00:20:13;8.40;99.90
62998;DHT22;55949;52.590;7.330;2023-04-15T00:21:13;8.40;99.90
62998;DHT22;55949;52.590;7.330;2023-04-15T00:22:14;8.40;99.90
62998;DHT22;55949;52.590;7.330;2023-04-15T00:23:15;8.50;99.90
62998;DHT22;55949;52.590;7.330;2023-04-15T00:24:16;8.50;99.90
62998;DHT22;55949;52.590;7.330;2023-04-15T00:25:17;8.50;99.90
62998;DHT22;55949;52.590;7.330;2023-04-15T00:26:17;8.50;99.90
62998;DHT22;55949;52.590;7.330;2023-04-15T00:27:19;8.50;99.90
62998;DHT22;55949;52.590;7.330;2023-04-15T00:28:20;8.50;99.90
62998;DHT22;55949;52.590;7.330;2023-04-15T00:29:21;8.50;99.90
62998;DHT22;55949;52.590;7.330;2023-04-15T00:30:21;8.40;99.90
62998;DHT22;55949;52.590;7.330;2023-04-15T00:31:23;8.30;99.90
62998;DHT22;55949;52.590;7.330;2023-04-15T00:32:24;8.40;99.90
62998;DHT22;55949;52.590;7.330;2023-04-15T00:33:24;8.40;99.90
62998;DHT22;55949;52.590;7.330;2023-04-15T00:34:26;8.40;99.90
62998;DHT22;55949;52.590;7.330;2023-04-15T00:35:27;8.40;99.90
62998;DHT22;55949;52.590;7.330;2023-04-15T00:36:27;8.30;99.90
62998;DHT22;55949;52.590;7.330;2023-04-15T00:37:28;8.30;99.90
62998;DHT22;55949;52.590;7.330;2023-04-15T00:38:29;8.30;99.90
62998;DHT22;55949;52.590;7.330;2023-04-15T00:39:30;8.30;99.90
62998;DHT22;55949;52.590;7.330;2023-04-15T00:40:32;8.30;99.90
62998;DHT22;55949;52.590;7.330;2023-04-15T00:41:33;8.30;99.90
62998;DHT22;55949;52.590;7.330;2023-04-15T00:42:35;8.30;99.90
62998;DHT22;55949;52.590;7.330;2023-04-15T00:43:36;8.30;99.90
62998;DHT22;55949;52.590;7.330;2023-04-15T00:44:37;8.30;99.90
62998;DHT22;55949;52.590;7.330;2023-04-15T00:45:38;8.30;99.90
62998;DHT22;55949;52.590;7.330;2023-04-15T00:46:39;8.20;99.90
62998;DHT22;55949;52.590;7.330;2023-04-15T00:47:42;8.20;99.90
62998;DHT22;55949;52.590;7.330;2023-04-15T00:48:43;8.20;99.90
62998;DHT22;55949;52.590;7.330;2023-04-15T00:49:43;8.20;99.90
62998;DHT22;55949;52.590;7.330;2023-04-15T00:50:44;8.20;99.90
62998;DHT22;55949;52.590;7.330;2023-04-15T00:51:45;8.10;99.90
62998;DHT22;55949;52.590;7.330;2023-04-15T00:52:46;8.20;99.90
62998;DHT22;55949;52.590;7.330;2023-04-15T00:53:47;8.00;99.90
62998;DHT22;55949;52.590;7.330;2023-04-15T00:54:47;7.90;99.90
62998;DHT22;55949;52.590;7.330;2023-04-15T00:55:48;7.90;99.90
62998;DHT22;55949;52.590;7.330;2023-04-15T00:56:49;7.90;99.90
62998;DHT22;55949;52.590;7.330;2023-04-15T00:57:51;8.00;99.90
62998;DHT22;55949;52.590;7.330;2023-04-15T00:58:52;8.00;99.90
62998;DHT22;55949;52.590;7.330;2023-04-15T00:59:54;8.00;99.90
62998;DHT22;55949;52.590;7.330;2023-04-15T01:00:56;8.00;99.90
62998;DHT22;55949;52.590;7.330;2023-04-15T01:01:57;8.00;99.90
62998;DHT22;55949;52.590;7.330;2023-04-15T01:02:58;7.90;99.90
62998;DHT22;55949;52.590;7.330;2023-04-15T01:03:58;7.90;99.90
62998;DHT22;55949;52.590;7.330;2023-04-15T01:04:59;7.90;99.90
62998;DHT22;55949;52.590;7.330;2023-04-15T01:06:00;7.90;99.90
62998;DHT22;55949;52.590;7.330;2023-04-15T01:07:02;7.90;99.90
62998;DHT22;55949;52.590;7.330;2023-04-15T01:08:02;7.80;99.90
62998;DHT22;55949;52.590;7.330;2023-04-15T01:09:04;7.70;99.90
62998;DHT22;55949;52.590;7.330;2023-04-15T01:10:05;7.70;99.90
62998;DHT22;55949;52.590;7.330;2023-04-15T01:11:06;7.70;99.90
62998;DHT22;55949;52.590;7.330;2023-04-15T01:12:11;7.70;99.90
62998;DHT22;55949;52.590;7.330;2023-04-15T01:13:13;7.60;99.90
62998;DHT22;55949;52.590;7.330;2023-04-15T01:14:14;7.60;99.90
62998;DHT22;55949;52.590;7.330;2023-04-15T01:15:15;7.50;99.90
62998;DHT22;55949;52.590;7.330;2023-04-15T01:16:17;7.50;99.90
62998;DHT22;55949;52.590;7.330;2023-04-15T01:17:18;7.50;99.90
62998;DHT22;55949;52.590;7.330;2023-04-15T01:18:20;7.50;99.90
62998;DHT22;55949;52.590;7.330;2023-04-15T01:19:21;7.50;99.90
62998;DHT22;55949;52.590;7.330;2023-04-15T01:20:22;7.50;99.90
62998;DHT22;55949;52.590;7.330;2023-04-15T01:21:22;7.40;99.90
62998;DHT22;55949;52.590;7.330;2023-04-15T01:22:24;7.40;99.90
62998;DHT22;55949;52.590;7.330;2023-04-15T01:23:26;7.40;99.90
62998;DHT22;55949;52.590;7.330;2023-04-15T01:24:29;7.30;99.90
62998;DHT22;55949;52.590;7.330;2023-04-15T01:25:32;7.30;99.90
62998;DHT22;55949;52.590;7.330;2023-04-15T01:26:33;7.20;99.90
62998;DHT22;55949;52.590;7.330;2023-04-15T01:27:34;7.20;99.90
62998;DHT22;55949;52.590;7.330;2023-04-15T01:28:36;7.20;99.90
62998;DHT22;55949;52.590;7.330;2023-04-15T01:29:37;7.20;99.90
62998;DHT22;55949;52.590;7.330;2023-04-15T01:30:39;7.20;99.90
62998;DHT22;55949;52.590;7.330;2023-04-15T01:31:39;7.30;99.90
62998;DHT22;55949;52.590;7.330;2023-04-15T01:32:40;7.30;99.90
62998;DHT22;55949;52.590;7.330;2023-04-15T01:33:42;7.30;99.90
62998;DHT22;55949;52.590;7.330;2023-04-15T01:34:43;7.40;99.90
62998;DHT22;55949;52.590;7.330;2023-04-15T01:35:43;7.40;99.90
62998;DHT22;55949;52.590;7.330;2023-04-15T01:36:44;7.40;99.90
62998;DHT22;55949;52.590;7.330;2023-04-15T01:37:46;7.40;99.90
62998;DHT22;55949;52.590;7.330;2023-04-15T01:38:47;7.30;99.90
62998;DHT22;55949;52.590;7.330;2023-04-15T01:39:48;7.30;99.90
62998;DHT22;55949;52.590;7.330;2023-04-15T01:40:48;7.30;99.90
62998;DHT22;55949;52.590;7.330;2023-04-15T01:41:49;7.30;99.90
62998;DHT22;55949;52.590;7.330;2023-04-15T01:42:49;7.30;99.90
62998;DHT22;55949;52.590;7.330;2023-04-15T01:43:50;7.30;99.90
62998;DHT22;55949;52.590;7.330;2023-04-15T01:44:52;7.20;99.90
62998;DHT22;55949;52.590;7.330;2023-04-15T01:45:53;7.30;99.90
62998;DHT22;55949;52.590;7.330;2023-04-15T01:46:53;7.20;99.90
62998;DHT22;55949;52.590;7.330;2023-04-15T01:47:54;7.20;99.90
62998;DHT22;55949;52.590;7.330;2023-04-15T01:48:55;7.30;99.90
62998;DHT22;55949;52.590;7.330;2023-04-15T01:49:56;7.30;99.90
62998;DHT22;55949;52.590;7.330;2023-04-15T01:50:57;7.30;99.90
62998;DHT22;55949;52.590;7.330;2023-04-15T01:51:58;7.30;99.90
62998;DHT22;55949;52.590;7.330;2023-04-15T01:52:58;7.30;99.90
62998;DHT22;55949;52.590;7.330;2023-04-15T01:53:59;7.30;99.90
62998;DHT22;55949;52.590;7.330;2023-04-15T01:55:00;7.40;99.90
62998;DHT22;55949;52.590;7.330;2023-04-15T01:56:01;7.30;99.90
62998;DHT22;55949;52.590;7.330;2023-04-15T01:57:02;7.20;99.90
62998;DHT22;55949;52.590;7.330;2023-04-15T01:58:03;6.90;99.90
62998;DHT22;55949;52.590;7.330;2023-04-15T01:59:07;6.80;99.90
62998;DHT22;55949;52.590;7.330;2023-04-15T02:00:08;6.60;99.90
62998;DHT22;55949;52.590;7.330;2023-04-15T02:01:09;6.70;99.90
62998;DHT22;55949;52.590;7.330;2023-04-15T02:02:10;6.50;99.90
62998;DHT22;55949;52.590;7.330;2023-04-15T02:03:11;6.40;99.90
62998;DHT22;55949;52.590;7.330;2023-04-15T02:04:12;6.40;99.90
62998;DHT22;55949;52.590;7.330;2023-04-15T02:05:16;6.40;99.90
62998;DHT22;55949;52.590;7.330;2023-04-15T02:06:16;6.40;99.90
62998;DHT22;55949;52.590;7.330;2023-04-15T02:07:17;6.50;99.90
62998;DHT22;55949;52.590;7.330;2023-04-15T02:08:19;6.50;99.90
62998;DHT22;55949;52.590;7.330;2023-04-15T02:09:19;6.50;99.90
62998;DHT22;55949;52.590;7.330;2023-04-15T02:10:20;6.60;99.90
62998;DHT22;55949;52.590;7.330;2023-04-15T02:11:21;6.80;99.90
62998;DHT22;55949;52.590;7.330;2023-04-15T02:12:22;6.80;99.90
62998;DHT22;55949;52.590;7.330;2023-04-15T02:13:23;6.90;99.90
62998;DHT22;55949;52.590;7.330;2023-04-15T02:14:23;7.00;99.90
62998;DHT22;55949;52.590;7.330;2023-04-15T02:15:24;7.00;99.90
62998;DHT22;55949;52.590;7.330;2023-04-15T02:16:25;7.10;99.90
62998;DHT22;55949;52.590;7.330;2023-04-15T02:17:26;7.10;99.90
62998;DHT22;55949;52.590;7.330;2023-04-15T02:18:26;7.10;99.90
62998;DHT22;55949;52.590;7.330;2023-04-15T02:19:27;7.00;99.90
62998;DHT22;55949;52.590;7.330;2023-04-15T02:20:28;6.90;99.90
62998;DHT22;55949;52.590;7.330;2023-04-15T02:21:30;6.80;99.90
62998;DHT22;55949;52.590;7.330;2023-04-15T02:22:31;7.00;99.90
62998;DHT22;55949;52.590;7.330;2023-04-15T02:23:31;6.90;99.90
62998;DHT22;55949;52.590;7.330;2023-04-15T02:24:32;7.00;99.90
62998;DHT22;55949;52.590;7.330;2023-04-15T02:25:33;6.90;99.90
62998;DHT22;55949;52.590;7.330;2023-04-15T02:26:34;6.90;99.90
62998;DHT22;55949;52.590;7.330;2023-04-15T02:27:35;7.00;99.90
62998;DHT22;55949;52.590;7.330;2023-04-15T02:28:36;7.00;99.90
62998;DHT22;55949;52.590;7.330;2023-04-15T02:29:37;7.00;99.90
62998;DHT22;55949;52.590;7.330;2023-04-15T02:30:37;6.90;99.90
62998;DHT22;55949;52.590;7.330;2023-04-15T02:31:40;6.90;99.90
62998;DHT22;55949;52.590;7.330;2023-04-15T02:32:41;6.90;99.90
62998;DHT22;55949;52.590;7.330;2023-04-15T02:33:44;6.90;99.90
62998;DHT22;55949;52.590;7.330;2023-04-15T02:34:45;6.90;99.90
62998;DHT22;55949;52.590;7.330;2023-04-15T02:35:45;6.90;99.90
62998;DHT22;55949;52.590;7.330;2023-04-15T02:36:46;6.80;99.90
62998;DHT22;55949;52.590;7.330;2023-04-15T02:37:48;6.80;99.90
62998;DHT22;55949;52.590;7.330;2023-04-15T02:38:49;6.80;99.90
62998;DHT22;55949;52.590;7.330;2023-04-15T02:39:50;6.80;99.90
62998;DHT22;55949;52.590;7.330;2023-04-15T02:40:51;6.80;99.90
62998;DHT22;55949;52.590;7.330;2023-04-15T02:41:52;6.80;99.90
62998;DHT22;55949;52.590;7.330;2023-04-15T02:42:52;6.80;99.90
62998;DHT22;55949;52.590;7.330;2023-04-15T02:43:53;6.70;99.90
62998;DHT22;55949;52.590;7.330;2023-04-15T02:44:54;6.70;99.90
62998;DHT22;55949;52.590;7.330;2023-04-15T02:45:55;6.70;99.90
62998;DHT22;55949;52.590;7.330;2023-04-15T02:46:56;6.60;99.90
62998;DHT22;55949;52.590;7.330;2023-04-15T02:47:57;6.60;99.90
62998;DHT22;55949;52.590;7.330;2023-04-15T02:48:58;6.60;99.90
62998;DHT22;55949;52.590;7.330;2023-04-15T02:49:59;6.60;99.90
62998;DHT22;55949;52.590;7.330;2023-04-15T02:51:18;6.60;99.90
62998;DHT22;55949;52.590;7.330;2023-04-15T02:52:21;6.60;99.90
62998;DHT22;55949;52.590;7.330;2023-04-15T02:53:23;6.60;99.90
62998;DHT22;55949;52.590;7.330;2023-04-15T02:54:25;6.60;99.90
62998;DHT22;55949;52.590;7.330;2023-04-15T02:55:28;6.60;99.90
62998;DHT22;55949;52.590;7.330;2023-04-15T02:56:29;6.60;99.90
62998;DHT22;55949;52.590;7.330;2023-04-15T02:57:30;6.70;99.90
62998;DHT22;55949;52.590;7.330;2023-04-15T02:58:31;6.80;99.90
62998;DHT22;55949;52.590;7.330;2023-04-15T02:59:31;6.80;99.90
62998;DHT22;55949;52.590;7.330;2023-04-15T03:00:32;6.90;99.90
62998;DHT22;55949;52.590;7.330;2023-04-15T03:01:33;6.90;99.90
62998;DHT22;55949;52.590;7.330;2023-04-15T03:02:35;6.90;99.90
62998;DHT22;55949;52.590;7.330;2023-04-15T03:03:36;6.90;99.90
62998;DHT22;55949;52.590;7.330;2023-04-15T03:04:37;6.90;99.90
62998;DHT22;55949;52.590;7.330;2023-04-15T03:05:39;6.90;99.90
62998;DHT22;55949;52.590;7.330;2023-04-15T03:06:40;6.80;99.90
62998;DHT22;55949;52.590;7.330;2023-04-15T03:07:41;6.80;99.90
62998;DHT22;55949;52.590;7.330;2023-04-15T03:08:41;6.80;99.90
62998;DHT22;55949;52.590;7.330;2023-04-15T03:09:42;6.80;99.90
62998;DHT22;55949;52.590;7.330;2023-04-15T03:10:43;6.90;99.90
62998;DHT22;55949;52.590;7.330;2023-04-15T03:11:44;6.90;99.90
62998;DHT22;55949;52.590;7.330;2023-04-15T03:12:45;7.00;99.90
62998;DHT22;55949;52.590;7.330;2023-04-15T03:13:45;7.00;99.90
62998;DHT22;55949;52.590;7.330;2023-04-15T03:14:46;6.90;99.90
62998;DHT22;55949;52.590;7.330;2023-04-15T03:15:47;6.90;99.90
62998;DHT22;55949;52.590;7.330;2023-04-15T03:16:48;6.90;99.90
62998;DHT22;55949;52.590;7.330;2023-04-15T03:17:50;6.90;99.90
62998;DHT22;55949;52.590;7.330;2023-04-15T03:18:51;6.90;99.90
62998;DHT22;55949;52.590;7.330;2023-04-15T03:19:51;7.00;99.90
62998;DHT22;55949;52.590;7.330;2023-04-15T03:20:52;7.00;99.90
62998;DHT22;55949;52.590;7.330;2023-04-15T03:21:53;7.10;99.90
62998;DHT22;55949;52.590;7.330;2023-04-15T03:22:53;7.10;99.90
62998;DHT22;55949;52.590;7.330;2023-04-15T03:23:54;7.00;99.90
62998;DHT22;55949;52.590;7.330;2023-04-15T03:24:56;6.90;99.90
62998;DHT22;55949;52.590;7.330;2023-04-15T03:25:56;6.80;99.90
62998;DHT22;55949;52.590;7.330;2023-04-15T03:26:58;6.70;99.90
62998;DHT22;55949;52.590;7.330;2023-04-15T03:27:59;6.50;99.90
62998;DHT22;55949;52.590;7.330;2023-04-15T03:29:00;6.50;99.90
62998;DHT22;55949;52.590;7.330;2023-04-15T03:30:01;6.50;99.90
62998;DHT22;55949;52.590;7.330;2023-04-15T03:31:01;6.50;99.90
62998;DHT22;55949;52.590;7.330;2023-04-15T03:32:02;6.40;99.90
62998;DHT22;55949;52.590;7.330;2023-04-15T03:33:03;6.40;99.90
62998;DHT22;55949;52.590;7.330;2023-04-15T03:34:03;6.40;99.90
62998;DHT22;55949;52.590;7.330;2023-04-15T03:35:04;6.40;99.90
62998;DHT22;55949;52.590;7.330;2023-04-15T03:36:06;6.40;99.90
62998;DHT22;55949;52.590;7.330;2023-04-15T03:37:07;6.30;99.90
62998;DHT22;55949;52.590;7.330;2023-04-15T03:38:08;6.20;99.90
62998;DHT22;55949;52.590;7.330;2023-04-15T03:39:08;6.10;99.90
62998;DHT22;55949;52.590;7.330;2023-04-15T03:40:09;6.10;99.90
62998;DHT22;55949;52.590;7.330;2023-04-15T03:41:11;6.10;99.90
62998;DHT22;55949;52.590;7.330;2023-04-15T03:42:11;6.20;99.90
62998;DHT22;55949;52.590;7.330;2023-04-15T03:43:12;6.20;99.90
62998;DHT22;55949;52.590;7.330;2023-04-15T03:44:13;6.30;99.90
62998;DHT22;55949;52.590;7.330;2023-04-15T03:45:13;6.30;99.90
62998;DHT22;55949;52.590;7.330;2023-04-15T03:46:14;6.40;99.90
62998;DHT22;55949;52.590;7.330;2023-04-15T03:47:15;6.40;99.90
62998;DHT22;55949;52.590;7.330;2023-04-15T03:48:15;6.50;99.90
62998;DHT22;55949;52.590;7.330;2023-04-15T03:49:16;6.60;99.90
62998;DHT22;55949;52.590;7.330;2023-04-15T03:50:18;6.60;99.90
62998;DHT22;55949;52.590;7.330;2023-04-15T03:51:19;6.60;99.90
62998;DHT22;55949;52.590;7.330;2023-04-15T03:52:20;6.50;99.90
62998;DHT22;55949;52.590;7.330;2023-04-15T03:53:21;6.50;99.90
62998;DHT22;55949;52.590;7.330;2023-04-15T03:54:22;6.50;99.90
62998;DHT22;55949;52.590;7.330;2023-04-15T03:55:23;6.40;99.90
62998;DHT22;55949;52.590;7.330;2023-04-15T03:56:24;6.40;99.90
62998;DHT22;55949;52.590;7.330;2023-04-15T03:57:25;6.50;99.90
62998;DHT22;55949;52.590;7.330;2023-04-15T03:58:26;6.50;99.90
62998;DHT22;55949;52.590;7.330;2023-04-15T03:59:27;6.40;99.90
62998;DHT22;55949;52.590;7.330;2023-04-15T04:00:28;6.30;99.90
62998;DHT22;55949;52.590;7.330;2023-04-15T04:01:29;6.30;99.90
62998;DHT22;55949;52.590;7.330;2023-04-15T04:02:29;6.20;99.90
62998;DHT22;55949;52.590;7.330;2023-04-15T04:03:30;6.10;99.90
62998;DHT22;55949;52.590;7.330;2023-04-15T04:04:31;6.00;99.90
62998;DHT22;55949;52.590;7.330;2023-04-15T04:05:32;6.00;99.90
62998;DHT22;55949;52.590;7.330;2023-04-15T04:06:32;5.90;99.90
62998;DHT22;55949;52.590;7.330;2023-04-15T04:07:33;5.90;99.90
62998;DHT22;55949;52.590;7.330;2023-04-15T04:08:34;5.80;99.90
62998;DHT22;55949;52.590;7.330;2023-04-15T04:09:35;5.80;99.90
62998;DHT22;55949;52.590;7.330;2023-04-15T04:10:38;5.80;99.90
62998;DHT22;55949;52.590;7.330;2023-04-15T04:11:39;5.80;99.90
62998;DHT22;55949;52.590;7.330;2023-04-15T04:12:40;5.80;99.90
62998;DHT22;55949;52.590;7.330;2023-04-15T04:13:41;5.80;99.90
62998;DHT22;55949;52.590;7.330;2023-04-15T04:14:41;5.80;99.90
62998;DHT22;55949;52.590;7.330;2023-04-15T04:15:42;5.70;99.90
62998;DHT22;55949;52.590;7.330;2023-04-15T04:16:42;5.50;99.90
62998;DHT22;55949;52.590;7.330;2023-04-15T04:17:44;5.50;99.90
62998;DHT22;55949;52.590;7.330;2023-04-15T04:18:45;5.70;99.90
62998;DHT22;55949;52.590;7.330;2023-04-15T04:19:46;5.70;99.90
62998;DHT22;55949;52.590;7.330;2023-04-15T04:20:47;5.70;99.90
62998;DHT22;55949;52.590;7.330;2023-04-15T04:21:47;5.70;99.90
62998;DHT22;55949;52.590;7.330;2023-04-15T04:22:49;5.70;99.90
62998;DHT22;55949;52.590;7.330;2023-04-15T04:23:50;5.80;99.90
62998;DHT22;55949;52.590;7.330;2023-04-15T04:24:51;5.80;99.90
62998;DHT22;55949;52.590;7.330;2023-04-15T04:25:51;6.00;99.90
62998;DHT22;55949;52.590;7.330;2023-04-15T04:26:53;6.10;99.90
62998;DHT22;55949;52.590;7.330;2023-04-15T04:27:53;6.30;99.90
62998;DHT22;55949;52.590;7.330;2023-04-15T04:28:54;6.40;99.90
62998;DHT22;55949;52.590;7.330;2023-04-15T04:29:55;6.40;99.90
62998;DHT22;55949;52.590;7.330;2023-04-15T04:30:56;6.20;99.90
62998;DHT22;55949;52.590;7.330;2023-04-15T04:31:56;6.10;99.90
62998;DHT22;55949;52.590;7.330;2023-04-15T04:32:57;6.00;99.90
62998;DHT22;55949;52.590;7.330;2023-04-15T04:33:58;6.00;99.90
62998;DHT22;55949;52.590;7.330;2023-04-15T04:34:58;5.90;99.90
62998;DHT22;55949;52.590;7.330;2023-04-15T04:35:59;5.80;99.90
62998;DHT22;55949;52.590;7.330;2023-04-15T04:37:00;5.80;99.90
62998;DHT22;55949;52.590;7.330;2023-04-15T04:38:00;5.80;99.90
62998;DHT22;55949;52.590;7.330;2023-04-15T04:39:01;5.90;99.90
62998;DHT22;55949;52.590;7.330;2023-04-15T04:40:02;5.90;99.90
62998;DHT22;55949;52.590;7.330;2023-04-15T04:41:03;5.90;99.90
62998;DHT22;55949;52.590;7.330;2023-04-15T04:42:03;6.00;99.90
62998;DHT22;55949;52.590;7.330;2023-04-15T04:43:04;6.00;99.90
62998;DHT22;55949;52.590;7.330;2023-04-15T04:44:05;6.00;99.90
62998;DHT22;55949;52.590;7.330;2023-04-15T04:45:06;6.10;99.90
62998;DHT22;55949;52.590;7.330;2023-04-15T04:46:06;6.10;99.90
62998;DHT22;55949;52.590;7.330;2023-04-15T04:47:07;6.10;99.90
62998;DHT22;55949;52.590;7.330;2023-04-15T04:48:08;6.10;99.90
62998;DHT22;55949;52.590;7.330;2023-04-15T04:49:09;6.10;99.90
62998;DHT22;55949;52.590;7.330;2023-04-15T04:50:10;6.10;99.90
62998;DHT22;55949;52.590;7.330;2023-04-15T04:51:11;6.10;99.90
62998;DHT22;55949;52.590;7.330;2023-04-15T04:52:12;6.00;99.90
62998;DHT22;55949;52.590;7.330;2023-04-15T04:53:13;5.90;99.90
62998;DHT22;55949;52.590;7.330;2023-04-15T04:54:14;5.90;99.90
62998;DHT22;55949;52.590;7.330;2023-04-15T04:55:15;5.80;99.90
62998;DHT22;55949;52.590;7.330;2023-04-15T04:56:16;5.90;99.90
62998;DHT22;55949;52.590;7.330;2023-04-15T04:57:17;5.90;99.90
62998;DHT22;55949;52.590;7.330;2023-04-15T04:58:17;6.00;99.90
62998;DHT22;55949;52.590;7.330;2023-04-15T04:59:18;6.00;99.90
62998;DHT22;55949;52.590;7.330;2023-04-15T05:00:19;5.90;99.90
62998;DHT22;55949;52.590;7.330;2023-04-15T05:01:19;5.90;99.90
62998;DHT22;55949;52.590;7.330;2023-04-15T05:02:20;6.00;99.90
62998;DHT22;55949;52.590;7.330;2023-04-15T05:03:21;6.00;99.90
62998;DHT22;55949;52.590;7.330;2023-04-15T05:04:22;6.00;99.90
62998;DHT22;55949;52.590;7.330;2023-04-15T05:05:23;6.00;99.90
62998;DHT22;55949;52.590;7.330;2023-04-15T05:06:23;6.00;99.90
62998;DHT22;55949;52.590;7.330;2023-04-15T05:07:24;6.00;99.90
62998;DHT22;55949;52.590;7.330;2023-04-15T05:08:25;6.00;99.90
62998;DHT22;55949;52.590;7.330;2023-04-15T05:09:25;6.00;99.90
62998;DHT22;55949;52.590;7.330;2023-04-15T05:10:26;5.90;99.90
62998;DHT22;55949;52.590;7.330;2023-04-15T05:11:27;5.90;99.90
62998;DHT22;55949;52.590;7.330;2023-04-15T05:12:28;5.90;99.90
62998;DHT22;55949;52.590;7.330;2023-04-15T05:13:28;5.90;99.90
62998;DHT22;55949;52.590;7.330;2023-04-15T05:14:29;5.80;99.90
62998;DHT22;55949;52.590;7.330;2023-04-15T05:15:31;5.80;99.90
62998;DHT22;55949;52.590;7.330;2023-04-15T05:16:34;5.70;99.90
62998;DHT22;55949;52.590;7.330;2023-04-15T05:17:34;5.70;99.90
62998;DHT22;55949;52.590;7.330;2023-04-15T05:18:35;5.70;99.90
62998;DHT22;55949;52.590;7.330;2023-04-15T05:19:37;5.80;99.90
62998;DHT22;55949;52.590;7.330;2023-04-15T05:20:38;5.80;99.90
62998;DHT22;55949;52.590;7.330;2023-04-15T05:21:39;5.80;99.90
62998;DHT22;55949;52.590;7.330;2023-04-15T05:22:39;5.80;99.90
62998;DHT22;55949;52.590;7.330;2023-04-15T05:23:40;5.70;99.90
62998;DHT22;55949;52.590;7.330;2023-04-15T05:24:41;5.70;99.90
62998;DHT22;55949;52.590;7.330;2023-04-15T05:25:42;5.80;99.90
62998;DHT22;55949;52.590;7.330;2023-04-15T05:26:42;5.90;99.90
62998;DHT22;55949;52.590;7.330;2023-04-15T05:27:43;6.00;99.90
62998;DHT22;55949;52.590;7.330;2023-04-15T05:28:44;6.00;99.90
62998;DHT22;55949;52.590;7.330;2023-04-15T05:29:45;6.00;99.90
62998;DHT22;55949;52.590;7.330;2023-04-15T05:30:46;6.10;99.90
62998;DHT22;55949;52.590;7.330;2023-04-15T05:31:47;6.00;99.90
62998;DHT22;55949;52.590;7.330;2023-04-15T05:32:47;6.10;99.90
62998;DHT22;55949;52.590;7.330;2023-04-15T05:33:48;6.10;99.90
62998;DHT22;55949;52.590;7.330;2023-04-15T05:34:49;6.10;99.90
62998;DHT22;55949;52.590;7.330;2023-04-15T05:35:50;6.10;99.90
62998;DHT22;55949;52.590;7.330;2023-04-15T05:36:51;6.10;99.90
62998;DHT22;55949;52.590;7.330;2023-04-15T05:37:52;6.10;99.90
62998;DHT22;55949;52.590;7.330;2023-04-15T05:38:52;6.10;99.90
62998;DHT22;55949;52.590;7.330;2023-04-15T05:39:53;6.00;99.90
62998;DHT22;55949;52.590;7.330;2023-04-15T05:40:54;6.00;99.90
62998;DHT22;55949;52.590;7.330;2023-04-15T05:41:55;6.00;99.90
62998;DHT22;55949;52.590;7.330;2023-04-15T05:42:57;5.90;99.90
62998;DHT22;55949;52.590;7.330;2023-04-15T05:43:58;6.00;99.90
62998;DHT22;55949;52.590;7.330;2023-04-15T05:44:58;6.00;99.90
62998;DHT22;55949;52.590;7.330;2023-04-15T05:45:59;6.10;99.90
62998;DHT22;55949;52.590;7.330;2023-04-15T05:47:00;6.20;99.90
62998;DHT22;55949;52.590;7.330;2023-04-15T05:48:03;6.30;99.90
62998;DHT22;55949;52.590;7.330;2023-04-15T05:49:03;6.30;99.90
62998;DHT22;55949;52.590;7.330;2023-04-15T05:50:05;6.40;99.90
62998;DHT22;55949;52.590;7.330;2023-04-15T05:51:06;6.40;99.90
62998;DHT22;55949;52.590;7.330;2023-04-15T05:52:06;6.50;99.90
62998;DHT22;55949;52.590;7.330;2023-04-15T05:53:08;6.60;99.90
62998;DHT22;55949;52.590;7.330;2023-04-15T05:54:08;6.60;99.90
62998;DHT22;55949;52.590;7.330;2023-04-15T05:55:12;6.60;99.90
62998;DHT22;55949;52.590;7.330;2023-04-15T05:56:13;6.60;99.90
62998;DHT22;55949;52.590;7.330;2023-04-15T05:57:14;6.70;99.90
62998;DHT22;55949;52.590;7.330;2023-04-15T05:58:15;6.60;99.90
62998;DHT22;55949;52.590;7.330;2023-04-15T05:59:15;6.70;99.90
62998;DHT22;55949;52.590;7.330;2023-04-15T06:00:16;6.70;99.90
62998;DHT22;55949;52.590;7.330;2023-04-15T06:01:17;6.70;99.90
62998;DHT22;55949;52.590;7.330;2023-04-15T06:02:18;6.80;99.90
62998;DHT22;55949;52.590;7.330;2023-04-15T06:03:18;6.80;99.90
62998;DHT22;55949;52.590;7.330;2023-04-15T06:04:19;6.80;99.90
62998;DHT22;55949;52.590;7.330;2023-04-15T06:05:20;6.90;99.90
62998;DHT22;55949;52.590;7.330;2023-04-15T06:06:21;6.80;99.90
62998;DHT22;55949;52.590;7.330;2023-04-15T06:07:22;6.80;99.90
62998;DHT22;55949;52.590;7.330;2023-04-15T06:08:22;6.80;99.90
62998;DHT22;55949;52.590;7.330;2023-04-15T06:09:23;6.90;99.90
62998;DHT22;55949;52.590;7.330;2023-04-15T06:10:24;6.90;99.90
62998;DHT22;55949;52.590;7.330;2023-04-15T06:11:25;6.90;99.90
62998;DHT22;55949;52.590;7.330;2023-04-15T06:12:26;7.00;99.90
62998;DHT22;55949;52.590;7.330;2023-04-15T06:13:28;7.00;99.90
62998;DHT22;55949;52.590;7.330;2023-04-15T06:14:28;7.00;99.90
62998;DHT22;55949;52.590;7.330;2023-04-15T06:15:29;7.10;99.90
62998;DHT22;55949;52.590;7.330;2023-04-15T06:16:30;7.20;99.90
62998;DHT22;55949;52.590;7.330;2023-04-15T06:17:31;7.30;99.90
62998;DHT22;55949;52.590;7.330;2023-04-15T06:18:32;7.30;99.90
62998;DHT22;55949;52.590;7.330;2023-04-15T06:19:33;7.40;99.90
62998;DHT22;55949;52.590;7.330;2023-04-15T06:20:34;7.40;99.90
62998;DHT22;55949;52.590;7.330;2023-04-15T06:21:36;7.40;99.90
62998;DHT22;55949;52.590;7.330;2023-04-15T06:22:37;7.30;99.90
62998;DHT22;55949;52.590;7.330;2023-04-15T06:23:41;7.30;99.90
62998;DHT22;55949;52.590;7.330;2023-04-15T06:24:42;7.30;99.90
62998;DHT22;55949;52.590;7.330;2023-04-15T06:25:42;7.30;99.90
62998;DHT22;55949;52.590;7.330;2023-04-15T06:26:43;7.20;99.90
62998;DHT22;55949;52.590;7.330;2023-04-15T06:27:44;7.20;99.90
62998;DHT22;55949;52.590;7.330;2023-04-15T06:28:45;7.20;99.90
62998;DHT22;55949;52.590;7.330;2023-04-15T06:29:46;7.20;99.90
62998;DHT22;55949;52.590;7.330;2023-04-15T06:30:46;7.30;99.90
62998;DHT22;55949;52.590;7.330;2023-04-15T06:31:50;7.30;99.90